Time;durP1;ratioP1;P1;durP2;ratioP2;P2;SDS_P1;SDS_P2;PMS_P1;PMS_P2;Temp;Humidity;BMP_temperature;BMP_pressure;BME280_temperature;BME280_humidity;BME280_pressure;Samples;Min_cycle;Max_cycle;Signal;HPM_P1;HPM_P2
2021/05/20 00:01:11;;;;;;;9.80;5.83;;;;;;;6.26;86.52;101393.56;5077261;28;20093;-65
2021/05/20 00:03:36;;;;;;;11.70;5.80;;;;;;;6.22;86.88;101386.81;5095080;28;20051;-65
2021/05/20 00:06:02;;;;;;;8.93;5.28;;;;;;;6.20;87.00;101384.28;5094189;28;20042;-65
2021/05/20 00:08:27;;;;;;;9.63;6.37;;;;;;;6.18;86.80;101390.66;5093524;28;20054;-65
2021/05/20 00:10:53;;;;;;;11.77;6.33;;;;;;;6.12;87.58;101395.47;5093994;28;20040;-66
2021/05/20 00:13:18;;;;;;;11.53;6.07;;;;;;;6.20;86.80;101384.28;5093935;28;20030;-65
2021/05/20 00:15:43;;;;;;;8.40;5.30;;;;;;;6.19;87.01;101393.19;5094843;28;20585;-65
2021/05/20 00:18:09;;;;;;;8.60;5.50;;;;;;;6.16;86.96;101396.09;5093407;28;20040;-65
2021/05/20 00:20:34;;;;;;;9.90;5.73;;;;;;;6.18;87.18;101398.59;5094739;28;20606;-65
2021/05/20 00:23:00;;;;;;;12.90;6.25;;;;;;;6.14;87.39;101400.66;5094375;28;20085;-65
2021/05/20 00:25:25;;;;;;;11.50;6.37;;;;;;;6.18;88.04;101402.13;5093800;28;20040;-65
2021/05/20 00:27:50;;;;;;;9.13;6.27;;;;;;;6.20;88.00;101404.66;5094325;28;20089;-65
2021/05/20 00:30:17;;;;;;;8.63;5.60;;;;;;;6.17;87.84;101405.72;5094625;28;20032;-65
2021/05/20 00:32:42;;;;;;;11.73;7.07;;;;;;;6.20;88.35;101405.47;5094623;28;20289;-65
2021/05/20 00:35:08;;;;;;;9.35;6.65;;;;;;;6.12;88.22;101407.88;5094541;28;20036;-65
2021/05/20 00:37:34;;;;;;;11.35;7.20;;;;;;;6.12;88.56;101405.25;5093149;28;20048;-65
2021/05/20 00:39:59;;;;;;;9.73;7.40;;;;;;;6.19;88.63;101405.63;5076578;28;20143;-65
2021/05/20 00:42:25;;;;;;;8.63;7.30;;;;;;;6.29;88.87;101409.25;5093355;28;20293;-65
2021/05/20 00:45:01;;;;;;;16.83;9.33;;;;;;;6.44;89.36;101410.72;5094237;28;20048;-65
2021/05/20 00:47:30;;;;;;;11.77;9.00;;;;;;;6.61;89.39;101409.38;5093089;28;20160;-65
2021/05/20 00:49:56;;;;;;;13.13;8.07;;;;;;;6.72;89.01;101412.06;5094151;28;20510;-65
2021/05/20 00:52:22;;;;;;;;;;;;;;;6.81;88.94;101412.28;5094552;28;20036;-66
2021/05/20 00:54:49;;;;;;;;;;;;;;;6.84;88.76;101407.59;5094570;28;19923;-65
2021/05/20 00:57:15;;;;;;;13.35;7.15;;;;;;;6.91;88.66;101411.44;5094096;28;20343;-66
2021/05/20 00:59:40;;;;;;;10.15;7.25;;;;;;;6.98;88.36;101419.75;5092700;28;20051;-65
2021/05/20 01:02:06;;;;;;;10.37;7.43;;;;;;;7.06;88.61;101417.31;5076041;28;20442;-65
2021/05/20 01:04:31;;;;;;;12.30;8.40;;;;;;;7.11;88.34;101423.09;5093666;28;20061;-66
2021/05/20 01:06:57;;;;;;;11.20;7.87;;;;;;;7.11;87.88;101420.44;5093031;28;20328;-65
2021/05/20 01:09:22;;;;;;;12.23;7.43;;;;;;;7.14;87.52;101428.19;5093480;28;20040;-66
2021/05/20 01:11:47;;;;;;;12.00;8.67;;;;;;;7.20;87.02;101426.81;5092955;28;20509;-66
2021/05/20 01:14:13;;;;;;;9.93;7.80;;;;;;;7.26;87.22;101436.09;5093683;28;20036;-65
2021/05/20 01:16:38;;;;;;;8.90;6.57;;;;;;;7.29;86.99;101434.06;5093802;28;20024;-65
2021/05/20 01:19:04;;;;;;;10.07;8.00;;;;;;;7.30;86.74;101437.53;5075334;28;20650;-66
2021/05/20 01:21:32;;;;;;;11.77;7.15;;;;;;;7.37;86.63;101439.59;5093566;28;20496;-65
2021/05/20 01:23:57;;;;;;;10.95;7.28;;;;;;;7.38;86.32;101437.78;5092545;28;20044;-65
2021/05/20 01:26:22;;;;;;;14.70;7.67;;;;;;;7.41;86.47;101424.25;5093528;28;20040;-65
2021/05/20 01:28:48;;;;;;;10.87;6.83;;;;;;;7.46;86.24;101435.31;5092199;28;20046;-66
2021/05/20 01:31:13;;;;;;;8.33;6.97;;;;;;;7.43;85.79;101438.25;5092524;28;20036;-66
2021/05/20 01:33:39;;;;;;;11.57;6.97;;;;;;;7.45;85.54;101440.78;5093306;28;20093;-65
2021/05/20 01:36:04;;;;;;;10.97;6.83;;;;;;;7.50;85.36;101438.59;5092342;28;20036;-65
2021/05/20 01:41:06;;;;;;;11.27;7.18;;;;;;;7.49;85.05;101442.19;5093375;28;20071;-65
2021/05/20 01:43:33;;;;;;;10.30;7.28;;;;;;;7.44;84.10;101442.56;5093273;28;20040;-65
2021/05/20 01:46:02;;;;;;;10.88;7.13;;;;;;;7.45;84.99;101435.47;5092116;28;20038;-65
2021/05/20 01:48:34;;;;;;;8.85;6.13;;;;;;;7.47;84.48;101450.31;5092717;28;20036;-65
2021/05/20 01:51:05;;;;;;;9.38;6.85;;;;;;;7.49;83.82;101447.50;5092115;28;20097;-65
2021/05/20 01:53:31;;;;;;;12.10;7.47;;;;;;;7.49;83.87;101442.19;5093152;28;20080;-65
2021/05/20 01:55:57;;;;;;;9.77;6.97;;;;;;;7.47;83.60;101437.03;5092910;28;20043;-65
2021/05/20 01:58:22;;;;;;;8.10;6.23;;;;;;;7.53;83.52;101446.31;5074919;28;20044;-66
2021/05/20 02:00:48;;;;;;;10.13;6.77;;;;;;;7.50;83.48;101443.91;5091786;28;20040;-66
2021/05/20 02:03:13;;;;;;;10.27;6.30;;;;;;;7.51;83.29;101446.41;5091877;28;20152;-65
2021/05/20 02:05:39;;;;;;;9.98;6.50;;;;;;;7.53;83.17;101443.66;5091797;28;20532;-65
2021/05/20 02:08:05;;;;;;;8.10;5.80;;;;;;;7.53;82.76;101447.13;5091622;28;20043;-65
2021/05/20 02:10:30;;;;;;;11.27;6.20;;;;;;;7.52;83.01;101439.31;5091729;28;20104;-65
2021/05/20 02:12:55;;;;;;;9.63;6.40;;;;;;;7.54;82.37;101435.56;5092724;28;20043;-65
2021/05/20 02:15:21;;;;;;;9.37;5.80;;;;;;;7.51;82.34;101442.94;5092413;28;20504;-65
2021/05/20 02:17:46;;;;;;;11.18;7.32;;;;;;;7.48;82.38;101436.06;5092436;28;20334;-65
2021/05/20 02:20:12;;;;;;;10.97;6.20;;;;;;;7.54;82.13;101446.19;5091563;28;20051;-65
2021/05/20 02:22:38;;;;;;;9.38;5.72;;;;;;;7.59;82.03;101435.19;5092291;28;20124;-65
2021/05/20 02:25:04;;;;;;;7.07;5.20;;;;;;;7.56;81.78;101427.44;5074618;28;20204;-65
2021/05/20 02:27:30;;;;;;;10.98;5.82;;;;;;;7.59;81.45;101440.50;5074189;28;20044;-65
2021/05/20 02:29:56;;;;;;;9.07;5.33;;;;;;;7.61;81.62;101436.75;5092324;28;20186;-65
2021/05/20 02:32:21;;;;;;;7.95;5.30;;;;;;;7.63;81.41;101435.75;5091253;28;20040;-65
2021/05/20 02:34:47;;;;;;;7.40;4.78;;;;;;;7.55;81.62;101444.38;5092219;28;20031;-65
2021/05/20 02:37:12;;;;;;;6.87;4.57;;;;;;;7.53;81.60;101436.50;5091114;28;20044;-65
2021/05/20 02:39:38;;;;;;;7.53;5.07;;;;;;;7.40;81.98;101438.50;5091909;28;20039;-65
2021/05/20 02:42:03;;;;;;;8.03;5.47;;;;;;;7.41;82.03;101440.19;5092129;28;20070;-65
2021/05/20 02:44:29;;;;;;;7.85;4.63;;;;;;;7.48;82.28;101441.38;5091817;28;20036;-65
2021/05/20 02:46:54;;;;;;;5.17;4.23;;;;;;;7.45;82.29;101446.09;5090803;28;20040;-65
2021/05/20 02:49:20;;;;;;;6.40;5.13;;;;;;;7.41;82.51;101448.16;5090601;28;20066;-65
2021/05/20 02:51:45;;;;;;;7.43;5.30;;;;;;;7.40;82.31;101449.97;5091777;28;20036;-65
2021/05/20 02:54:10;;;;;;;7.07;5.17;;;;;;;7.46;82.21;101447.78;5091844;28;20024;-65
2021/05/20 02:56:36;;;;;;;9.83;5.83;;;;;;;7.44;82.44;101453.19;5091685;28;20472;-65
2021/05/20 02:59:01;;;;;;;9.03;6.33;;;;;;;7.41;82.23;101445.50;5090394;28;20131;-65
2021/05/20 03:01:27;;;;;;;8.37;5.53;;;;;;;7.46;82.33;101442.47;5090876;28;20050;-65
2021/05/20 03:03:52;;;;;;;9.20;6.10;;;;;;;7.47;81.61;101445.00;5091689;28;20044;-65
2021/05/20 03:06:18;;;;;;;8.23;6.30;;;;;;;7.44;81.63;101439.91;5091718;28;20370;-65
2021/05/20 03:08:43;;;;;;;7.80;5.77;;;;;;;7.39;81.88;101436.81;5091403;28;20829;-65
2021/05/20 03:11:08;;;;;;;7.80;6.00;;;;;;;7.43;82.17;101446.22;5090721;28;20040;-65
2021/05/20 03:13:34;;;;;;;7.43;6.40;;;;;;;7.42;82.32;101447.16;5090545;28;20028;-65
2021/05/20 03:15:59;;;;;;;7.77;5.93;;;;;;;7.47;82.37;101437.03;5090471;28;20172;-65
2021/05/20 03:18:24;;;;;;;7.40;5.17;;;;;;;7.45;82.20;101441.63;5091206;28;20050;-65
2021/05/20 03:20:50;;;;;;;8.10;6.53;;;;;;;7.39;82.55;101439.47;5091448;28;20077;-66
2021/05/20 03:23:16;;;;;;;9.73;6.07;;;;;;;7.42;82.55;101438.34;5090368;28;20036;-65
2021/05/20 03:25:41;;;;;;;10.25;6.20;;;;;;;7.38;82.72;101432.47;5091505;28;20048;-65
2021/05/20 03:28:07;;;;;;;9.47;6.93;;;;;;;7.39;82.90;101432.31;5090060;28;20051;-65
2021/05/20 03:30:32;;;;;;;10.17;7.37;;;;;;;7.39;82.78;101439.47;5073016;28;20044;-65
2021/05/20 03:32:57;;;;;;;10.63;6.10;;;;;;;7.36;82.94;101437.06;5073600;28;20047;-65
2021/05/20 03:35:23;;;;;;;21.43;6.77;;;;;;;7.38;82.49;101440.44;5091408;28;20032;-65
2021/05/20 03:37:48;;;;;;;10.00;6.07;;;;;;;7.39;83.17;101436.81;5073271;28;20028;-65
2021/05/20 03:40:13;;;;;;;10.53;5.53;;;;;;;7.46;82.74;101437.97;5091388;28;20055;-65
2021/05/20 03:42:39;;;;;;;7.40;5.40;;;;;;;7.53;82.80;101439.16;5088590;28;20035;-65
2021/05/20 03:45:05;;;;;;;7.05;5.65;;;;;;;7.48;82.21;101430.75;5069734;28;20033;-66
2021/05/20 03:47:31;;;;;;;8.93;6.20;;;;;;;7.58;82.23;101430.81;5070513;28;20075;-66
2021/05/20 03:49:56;;;;;;;7.70;6.00;;;;;;;7.57;82.54;101432.63;5070007;28;20254;-65
2021/05/20 03:52:22;;;;;;;7.17;5.43;;;;;;;7.65;82.52;101428.50;5070836;28;20032;-65
2021/05/20 03:54:47;;;;;;;11.77;5.63;;;;;;;7.67;81.87;101431.88;5069892;28;20446;-65
2021/05/20 03:57:13;;;;;;;7.55;5.10;;;;;;;7.72;81.94;101442.97;5070895;28;20032;-65
2021/05/20 03:59:38;;;;;;;8.07;5.57;;;;;;;7.78;82.02;101437.16;5069254;28;20170;-65
2021/05/20 04:02:04;;;;;;;7.00;4.97;;;;;;;7.80;82.11;101443.19;5070901;28;20067;-65
2021/05/20 04:04:29;;;;;;;13.23;6.60;;;;;;;7.80;81.91;101436.06;5070720;28;20045;-65
2021/05/20 04:06:55;;;;;;;7.40;5.37;;;;;;;7.81;81.49;101444.88;5069963;28;20040;-65
2021/05/20 04:09:20;;;;;;;11.30;6.50;;;;;;;7.82;80.61;101443.91;5069597;28;20106;-65
2021/05/20 04:11:45;;;;;;;6.90;4.80;;;;;;;7.90;81.09;101444.09;5070869;28;20040;-65
2021/05/20 04:14:11;;;;;;;7.30;5.13;;;;;;;7.96;79.66;101438.28;5052965;28;20136;-65
2021/05/20 04:16:36;;;;;;;9.30;6.50;;;;;;;7.96;78.49;101446.25;5069580;28;20109;-65
2021/05/20 04:19:03;;;;;;;8.00;4.93;;;;;;;8.00;79.60;101442.34;5073251;28;20680;-65
2021/05/20 04:21:29;;;;;;;7.35;5.28;;;;;;;8.13;79.02;101451.97;5090785;28;20032;-65
2021/05/20 04:23:54;;;;;;;5.30;4.53;;;;;;;8.11;79.16;101448.59;5090505;28;20438;-65
2021/05/20 04:26:20;;;;;;;8.63;5.90;;;;;;;8.16;78.20;101447.22;5090875;28;20418;-65
2021/05/20 04:28:49;;;;;;;7.10;4.70;;;;;;;8.29;78.58;101452.38;5089333;28;20513;-65
2021/05/20 04:31:14;;;;;;;7.75;5.13;;;;;;;8.35;79.12;101459.81;5090579;28;20431;-65
2021/05/20 04:33:41;;;;;;;12.60;4.50;;;;;;;8.40;79.45;101448.81;5090548;28;20111;-65
2021/05/20 04:36:06;;;;;;;5.10;4.22;;;;;;;8.30;79.30;101443.41;5090610;28;20032;-65
2021/05/20 04:38:32;;;;;;;7.07;4.57;;;;;;;8.49;78.53;101456.00;5090222;28;20036;-65
2021/05/20 04:40:57;;;;;;;10.77;6.80;;;;;;;8.51;78.34;101450.56;5072876;28;20418;-64
2021/05/20 04:43:22;;;;;;;5.53;4.10;;;;;;;8.52;78.54;101453.09;5092985;28;20044;-65
2021/05/20 04:45:48;;;;;;;14.87;5.27;;;;;;;8.65;78.31;101458.19;5093236;28;20681;-65
2021/05/20 04:48:13;;;;;;;9.77;5.00;;;;;;;8.60;77.29;101455.09;5094090;28;20564;-65
2021/05/20 04:50:40;;;;;;;9.07;4.90;;;;;;;8.58;75.78;101460.53;5093180;28;20496;-65
2021/05/20 04:53:05;;;;;;;7.53;4.53;;;;;;;8.64;76.63;101456.53;5093097;28;20430;-65
2021/05/20 04:55:31;;;;;;;6.47;4.63;;;;;;;8.71;76.72;101468.34;5085325;28;20086;-64
2021/05/20 04:57:56;;;;;;;7.40;3.83;;;;;;;8.88;76.32;101465.03;5072534;28;20040;-65
2021/05/20 05:00:22;;;;;;;5.60;4.23;;;;;;;8.92;76.01;101470.94;5073608;28;20089;-64
2021/05/20 05:02:47;;;;;;;7.85;4.65;;;;;;;8.88;75.46;101462.38;5072614;28;20028;-65
2021/05/20 05:05:12;;;;;;;6.57;4.43;;;;;;;8.90;78.07;101467.56;5073626;28;20522;-64
2021/05/20 05:07:38;;;;;;;9.87;4.17;;;;;;;9.18;77.44;101473.16;5073151;28;20111;-65
2021/05/20 05:10:05;;;;;;;6.90;4.50;;;;;;;9.26;75.48;101467.97;5072367;28;20083;-64
2021/05/20 05:12:31;;;;;;;9.45;4.85;;;;;;;9.02;74.10;101460.31;5072332;28;20105;-64
2021/05/20 05:14:57;;;;;;;6.90;4.57;;;;;;;8.93;74.38;101456.63;5072181;28;20037;-64
2021/05/20 05:17:23;;;;;;;10.75;4.90;;;;;;;9.10;75.00;101452.50;5073324;28;20032;-65
2021/05/20 05:19:48;;;;;;;11.27;5.17;;;;;;;9.22;74.92;101466.53;5072110;28;20046;-65
2021/05/20 05:22:13;;;;;;;10.03;5.80;;;;;;;9.18;73.62;101460.66;5072343;28;20105;-72
2021/05/20 05:24:40;;;;;;;6.27;4.63;;;;;;;9.22;73.87;101467.38;5072985;28;20435;-72
2021/05/20 05:27:05;;;;;;;8.50;5.07;;;;;;;9.11;75.17;101479.97;5072139;28;20036;-72
2021/05/20 05:29:32;;;;;;;8.80;5.60;;;;;;;9.06;73.47;101461.72;5072153;28;20059;-72
2021/05/20 05:31:58;;;;;;;6.85;4.60;;;;;;;9.15;74.36;101474.22;5083478;28;20346;-73
2021/05/20 05:34:23;;;;;;;7.47;4.97;;;;;;;9.13;74.46;101465.56;5092346;28;20045;-72
2021/05/20 05:36:49;;;;;;;8.00;4.37;;;;;;;9.29;74.28;101467.69;5093257;28;20047;-72
2021/05/20 05:39:14;;;;;;;7.70;4.93;;;;;;;9.39;74.18;101470.38;5092890;28;20040;-72
2021/05/20 05:41:39;;;;;;;11.50;4.93;;;;;;;9.56;73.70;101471.53;5092938;28;20032;-73
2021/05/20 05:44:05;;;;;;;7.50;5.13;;;;;;;9.54;73.88;101470.84;5093040;28;20059;-73
2021/05/20 05:46:31;;;;;;;9.77;5.65;;;;;;;9.63;74.20;101481.50;5093099;28;20454;-73
2021/05/20 05:49:00;;;;;;;7.30;4.93;;;;;;;9.77;73.55;101474.94;5092758;28;20036;-73
2021/05/20 05:51:28;;;;;;;7.90;5.75;;;;;;;9.77;73.50;101482.09;5092062;28;20024;-72
2021/05/20 05:53:53;;;;;;;8.55;5.68;;;;;;;9.70;73.28;101471.97;5092552;28;20024;-72
2021/05/20 05:56:18;;;;;;;7.63;5.10;;;;;;;9.84;73.74;101467.22;5092730;28;20058;-72
2021/05/20 05:58:43;;;;;;;6.70;5.43;;;;;;;9.87;72.21;101469.59;5092449;28;20027;-72
2021/05/20 06:01:09;;;;;;;7.60;4.90;;;;;;;10.03;72.97;101472.53;5092601;28;20534;-72
2021/05/20 06:03:35;;;;;;;6.75;4.78;;;;;;;9.96;73.04;101476.75;5092629;28;20457;-72
2021/05/20 06:06:01;;;;;;;9.40;5.25;;;;;;;10.14;71.96;101479.56;5092620;28;20122;-72
2021/05/20 06:08:26;;;;;;;7.03;5.72;;;;;;;10.35;72.76;101479.44;5074826;28;20040;-72
2021/05/20 06:10:52;;;;;;;8.23;5.03;;;;;;;10.03;72.07;101467.19;5071257;28;20040;-72
2021/05/20 06:13:18;;;;;;;7.40;4.97;;;;;;;10.25;72.19;101470.53;5072195;28;20375;-72
2021/05/20 06:15:43;;;;;;;7.17;5.17;;;;;;;10.61;70.70;101470.81;5072186;28;20064;-72
2021/05/20 06:18:08;;;;;;;5.57;4.43;;;;;;;10.73;70.50;101469.63;5054301;28;20469;-72
2021/05/20 06:20:34;;;;;;;9.73;6.00;;;;;;;10.73;69.85;101474.97;5072178;28;20040;-72
2021/05/20 06:22:59;;;;;;;5.60;4.87;;;;;;;10.85;69.21;101472.97;5070881;28;20032;-72
2021/05/20 06:25:25;;;;;;;10.23;5.67;;;;;;;10.70;70.73;101469.91;5071059;28;20052;-72
2021/05/20 06:27:50;;;;;;;8.07;4.97;;;;;;;10.68;70.19;101474.56;5071604;28;20032;-72
2021/05/20 06:30:16;;;;;;;7.60;5.03;;;;;;;10.85;67.32;101480.97;5071894;28;20040;-72
2021/05/20 06:32:42;;;;;;;6.57;4.72;;;;;;;10.76;68.43;101483.53;5071709;28;20033;-72
2021/05/20 06:35:07;;;;;;;4.97;3.63;;;;;;;10.74;67.32;101481.97;5071939;28;20040;-73
2021/05/20 06:37:33;;;;;;;6.47;4.40;;;;;;;10.77;67.58;101484.38;5070467;28;20028;-73
2021/05/20 06:39:59;;;;;;;8.77;4.75;;;;;;;10.71;68.96;101479.63;5070776;28;20040;-73
2021/05/20 06:42:25;;;;;;;7.15;4.50;;;;;;;10.83;69.38;101485.63;5070841;28;20040;-73
2021/05/20 06:44:50;;;;;;;8.47;5.00;;;;;;;10.90;67.19;101484.88;5070511;28;20067;-73
2021/05/20 06:47:16;;;;;;;8.07;4.43;;;;;;;10.79;68.64;101490.41;5071543;28;20036;-73
2021/05/20 06:49:41;;;;;;;7.13;5.00;;;;;;;10.91;68.74;101499.94;5071301;28;20029;-73
2021/05/20 06:52:07;;;;;;;7.50;4.75;;;;;;;10.82;68.73;101497.31;5070457;28;20202;-73
2021/05/20 06:54:32;;;;;;;7.28;5.05;;;;;;;10.75;68.71;101497.03;5070426;28;20047;-73
2021/05/20 06:57:01;;;;;;;8.03;4.90;;;;;;;10.88;69.40;101500.22;5071010;28;20093;-73
2021/05/20 07:02:10;;;;;;;9.20;4.80;;;;;;;10.67;68.44;101489.72;5071354;28;20040;-73
2021/05/20 07:04:36;;;;;;;10.17;4.73;;;;;;;10.83;69.24;101499.81;5069635;28;20046;-72
2021/05/20 07:07:02;;;;;;;5.93;4.43;;;;;;;10.61;68.48;101494.84;5071205;28;20040;-73
2021/05/20 07:09:28;;;;;;;6.55;4.00;;;;;;;10.97;68.12;101499.34;5071009;28;20036;-73
2021/05/20 07:11:55;;;;;;;7.10;4.80;;;;;;;11.16;68.57;101502.91;5071322;28;20048;-73
2021/05/20 07:14:21;;;;;;;10.32;4.05;;;;;;;11.16;68.55;101513.59;5071132;28;20420;-73
2021/05/20 07:16:47;;;;;;;6.63;4.18;;;;;;;11.21;68.14;101500.63;5071272;28;20040;-72
2021/05/20 07:19:12;;;;;;;5.53;4.32;;;;;;;11.20;67.75;101498.97;5070797;28;20101;-73
2021/05/20 07:21:38;;;;;;;6.07;4.50;;;;;;;10.99;67.86;101501.88;5070076;28;20032;-72
2021/05/20 07:24:04;;;;;;;6.90;5.10;;;;;;;10.73;69.18;101501.69;5071166;28;20593;-73
2021/05/20 07:26:29;;;;;;;10.15;4.95;;;;;;;10.99;68.99;101497.34;5070127;28;20044;-73
2021/05/20 07:28:55;;;;;;;6.30;4.80;;;;;;;11.02;68.43;101498.06;5070647;28;20043;-73
2021/05/20 07:31:20;;;;;;;7.67;4.60;;;;;;;11.41;66.87;101498.72;5070203;28;20033;-73
2021/05/20 07:33:45;;;;;;;9.00;4.60;;;;;;;11.57;67.25;101512.25;5070925;28;20025;-73
2021/05/20 07:36:11;;;;;;;7.47;4.73;;;;;;;11.65;66.33;101498.13;5071004;28;20446;-72
2021/05/20 07:38:39;;;;;;;5.53;4.30;;;;;;;11.67;64.57;101506.84;5069767;28;20123;-73
2021/05/20 07:41:04;;;;;;;6.97;4.07;;;;;;;11.81;64.83;101513.50;5069895;28;20036;-73
2021/05/20 07:43:29;;;;;;;5.57;4.63;;;;;;;12.08;63.89;101512.66;5069816;28;20041;-73
2021/05/20 07:45:55;;;;;;;4.77;4.03;;;;;;;12.05;64.63;101502.22;5070921;28;20101;-73
2021/05/20 07:48:20;;;;;;;8.40;4.27;;;;;;;12.15;65.59;101503.00;5070705;28;20041;-73
2021/05/20 07:50:45;;;;;;;4.97;3.57;;;;;;;12.33;64.07;101499.44;5070817;28;20120;-73
2021/05/20 07:53:11;;;;;;;6.10;4.23;;;;;;;12.19;63.69;101501.69;5070855;28;20056;-73
2021/05/20 07:55:36;;;;;;;5.07;3.83;;;;;;;12.33;63.68;101496.78;5069637;28;20157;-73
2021/05/20 07:58:04;;;;;;;6.65;4.25;;;;;;;11.81;63.68;101500.97;5052453;28;20446;-73
2021/05/20 08:00:30;;;;;;;3.78;3.03;;;;;;;12.28;63.51;101501.75;5069748;28;20040;-73
2021/05/20 08:03:03;;;;;;;5.03;2.90;;;;;;;12.04;62.40;101489.84;5070627;28;20094;-72
2021/05/20 08:05:35;;;;;;;3.95;3.10;;;;;;;12.26;62.83;101501.91;5069677;28;20045;-73
2021/05/20 08:08:18;;;;;;;4.75;3.35;;;;;;;11.68;62.30;101497.81;5070386;28;20119;-73
2021/05/20 08:10:49;;;;;;;3.85;3.15;;;;;;;11.59;64.31;101504.09;5070513;28;20121;-73
2021/05/20 08:13:15;;;;;;;5.18;2.88;;;;;;;11.83;64.02;101500.84;5069700;28;20361;-73
2021/05/20 08:15:40;;;;;;;5.15;3.10;;;;;;;12.00;64.13;101494.66;5069655;28;20043;-73
2021/05/20 08:18:06;;;;;;;4.73;3.50;;;;;;;12.83;62.79;101490.72;5074225;28;20040;-72
2021/05/20 08:20:31;;;;;;;4.63;2.83;;;;;;;13.15;59.93;101491.91;5073431;28;20044;-73
2021/05/20 08:22:57;;;;;;;4.13;3.20;;;;;;;14.52;55.45;101502.22;5073328;28;20115;-72
2021/05/20 08:25:22;;;;;;;4.80;3.57;;;;;;;14.89;55.54;101493.59;5074339;28;20438;-73
2021/05/20 08:27:48;;;;;;;3.93;2.90;;;;;;;14.03;55.40;101499.53;5072916;28;20060;-72
2021/05/20 08:30:14;;;;;;;4.10;3.27;;;;;;;13.96;56.42;101490.47;5074191;28;20056;-73
2021/05/20 08:32:39;;;;;;;3.25;2.53;;;;;;;13.89;55.38;101493.81;5074008;28;20044;-73
2021/05/20 08:35:06;;;;;;;2.20;2.00;;;;;;;13.62;57.78;101486.88;5074172;28;20059;-72
2021/05/20 08:37:32;;;;;;;2.55;2.17;;;;;;;13.49;56.98;101494.56;5072778;28;20278;-73
2021/05/20 08:39:57;;;;;;;2.15;1.95;;;;;;;13.63;57.11;101498.47;5073004;28;20521;-72
2021/05/20 08:42:22;;;;;;;2.80;2.10;;;;;;;13.57;57.41;101489.22;5073229;28;20338;-73
2021/05/20 08:44:48;;;;;;;3.20;2.07;;;;;;;13.27;58.45;101486.13;5073942;28;20655;-65
2021/05/20 08:47:13;;;;;;;7.17;3.57;;;;;;;12.82;58.33;101492.56;5073763;28;20469;-66
2021/05/20 08:49:39;;;;;;;4.67;2.53;;;;;;;12.35;59.39;101489.44;5073663;28;20123;-66
2021/05/20 08:52:05;;;;;;;4.53;2.40;;;;;;;12.46;61.22;101491.84;5073785;28;20036;-66
2021/05/20 08:54:30;;;;;;;3.00;2.13;;;;;;;13.00;61.19;101483.63;5073845;28;20400;-66
2021/05/20 08:56:55;;;;;;;3.00;2.67;;;;;;;12.93;59.69;101487.97;5073740;28;20051;-66
2021/05/20 08:59:22;;;;;;;3.90;2.70;;;;;;;13.06;59.67;101499.91;5073471;28;20036;-66
2021/05/20 09:01:50;;;;;;;2.88;2.40;;;;;;;12.84;59.79;101487.06;5073548;28;20079;-65
2021/05/20 09:04:16;;;;;;;3.13;2.70;;;;;;;13.07;59.41;101490.03;5072652;28;20111;-66
2021/05/20 09:06:49;;;;;;;2.83;2.42;;;;;;;12.73;58.59;101492.69;5073591;28;20477;-66
2021/05/20 09:09:27;;;;;;;3.22;2.63;;;;;;;12.43;60.64;101495.69;5073304;28;20064;-66
2021/05/20 09:11:56;;;;;;;4.15;2.63;;;;;;;12.66;60.65;101496.00;5073459;28;20048;-65
2021/05/20 09:14:32;;;;;;;10.68;3.00;;;;;;;12.32;59.47;101487.91;5072284;28;20128;-66
2021/05/20 09:17:06;;;;;;;;;;;;;;;12.49;59.47;101494.22;5073726;28;20044;-65
2021/05/20 09:19:32;;;;;;;4.07;3.45;;;;;;;12.58;60.50;101495.94;5072294;28;19923;-66
2021/05/20 09:22:08;;;;;;;5.77;2.83;;;;;;;12.88;59.75;101494.63;5073159;28;20025;-65
2021/05/20 09:24:42;;;;;;;4.30;2.63;;;;;;;12.78;58.67;101498.41;5072857;28;20052;-65
2021/05/20 09:27:26;;;;;;;3.15;2.63;;;;;;;12.57;60.00;101488.94;5073140;28;20032;-66
2021/05/20 09:30:11;;;;;;;3.90;2.95;;;;;;;12.27;60.45;101497.38;5071915;28;20370;-66
2021/05/20 09:32:46;;;;;;;3.67;3.00;;;;;;;12.25;61.01;101495.72;5072126;28;20028;-65
2021/05/20 09:35:12;;;;;;;5.03;2.88;;;;;;;12.18;61.46;101497.34;5073048;28;20364;-66
2021/05/20 09:37:52;;;;;;;3.70;3.10;;;;;;;12.00;61.58;101485.78;5072825;28;20111;-65
2021/05/20 09:40:21;;;;;;;3.25;2.78;;;;;;;12.11;61.32;101490.09;5072969;28;20749;-65
2021/05/20 09:42:48;;;;;;;3.78;2.72;;;;;;;12.07;60.41;101489.53;5072865;28;20452;-66
2021/05/20 09:45:17;;;;;;;3.90;2.20;;;;;;;12.21;61.34;101494.34;5072793;28;20125;-66
2021/05/20 09:47:43;;;;;;;3.00;2.70;;;;;;;12.55;59.15;101484.69;5071524;28;20097;-66
2021/05/20 09:50:21;;;;;;;3.67;2.53;;;;;;;12.56;59.92;101491.75;5072780;28;20066;-66
2021/05/20 09:52:48;;;;;;;2.88;2.50;;;;;;;12.67;60.31;101486.97;5071633;28;20036;-65
2021/05/20 09:55:25;;;;;;;3.08;2.58;;;;;;;12.85;57.90;101486.91;5071604;28;20031;-65
2021/05/20 09:57:52;;;;;;;3.92;2.70;;;;;;;12.80;59.15;101486.53;5072196;28;20033;-65
2021/05/20 10:00:21;;;;;;;4.25;3.10;;;;;;;12.95;58.80;101483.28;5072546;28;20043;-66
2021/05/20 10:02:57;;;;;;;4.03;2.70;;;;;;;12.75;58.29;101488.84;5071428;28;20047;-66
2021/05/20 10:05:25;;;;;;;3.67;2.97;;;;;;;13.11;60.04;101494.09;5072568;28;20044;-66
2021/05/20 10:07:50;;;;;;;2.80;2.58;;;;;;;13.14;57.39;101479.50;5072043;28;20032;-66
2021/05/20 10:10:17;;;;;;;4.93;2.55;;;;;;;13.42;56.65;101482.81;5054630;28;20036;-66
2021/05/20 10:12:46;;;;;;;3.67;2.33;;;;;;;13.88;57.63;101477.88;5071396;28;20475;-66
2021/05/20 10:15:16;;;;;;;2.97;2.70;;;;;;;13.82;54.79;101473.19;5071249;28;20530;-66
2021/05/20 10:17:42;;;;;;;5.38;2.55;;;;;;;14.36;55.30;101485.09;5071817;28;20113;-65
2021/05/20 10:20:10;;;;;;;3.75;2.47;;;;;;;15.04;54.76;101474.06;5071200;28;20044;-66
2021/05/20 10:22:35;;;;;;;3.50;2.50;;;;;;;15.99;52.33;101474.69;5071969;28;20531;-66
2021/05/20 10:25:03;;;;;;;5.10;2.20;;;;;;;16.25;48.04;101465.41;5071778;28;20044;-66
2021/05/20 10:27:29;;;;;;;2.83;2.50;;;;;;;16.58;49.54;101465.91;5071645;28;20032;-66
2021/05/20 10:29:58;;;;;;;3.45;2.67;;;;;;;16.46;46.62;101467.38;5071854;28;20032;-66
2021/05/20 10:32:24;;;;;;;4.78;2.60;;;;;;;17.26;45.35;101465.81;5071907;28;20036;-66
2021/05/20 10:35:08;;;;;;;3.15;2.60;;;;;;;16.97;45.50;101455.88;5070849;28;20056;-66
2021/05/20 10:37:38;;;;;;;4.15;2.40;;;;;;;16.40;49.65;101463.56;5071377;28;20036;-66
2021/05/20 10:40:28;;;;;;;2.97;2.60;;;;;;;17.95;45.62;101464.50;5069915;28;20405;-66
2021/05/20 10:43:08;;;;;;;2.50;2.30;;;;;;;17.50;45.49;101461.94;5064142;28;20121;-66
2021/05/20 10:45:35;;;;;;;2.35;2.00;;;;;;;17.35;45.84;101461.97;5071706;28;20032;-66
2021/05/20 10:48:04;;;;;;;4.40;1.67;;;;;;;17.45;47.27;101458.97;5071175;28;20043;-66
2021/05/20 10:50:52;;;;;;;1.90;1.73;;;;;;;17.77;42.65;101452.25;5071671;28;20032;-66
2021/05/20 10:53:53;;;;;;;2.80;1.45;;;;;;;16.58;45.17;101447.03;5070505;28;20032;-66
2021/05/20 10:56:21;;;;;;;2.25;2.05;;;;;;;17.12;45.20;101443.22;5070358;28;20037;-66
2021/05/20 10:58:47;;;;;;;2.03;1.83;;;;;;;16.24;47.94;101450.22;5071193;28;20037;-66
2021/05/20 11:01:23;;;;;;;2.40;1.60;;;;;;;15.75;47.68;101453.31;5071407;28;20112;-66
2021/05/20 11:03:52;;;;;;;2.50;1.77;;;;;;;14.92;50.10;101444.00;5070450;28;20040;-66
2021/05/20 11:06:22;;;;;;;2.03;1.75;;;;;;;14.58;51.57;101453.16;5071322;28;20047;-66
2021/05/20 11:08:47;;;;;;;1.85;1.60;;;;;;;14.10;52.58;101455.72;5069923;28;20040;-66
2021/05/20 11:11:47;;;;;;;5.23;2.33;;;;;;;14.27;54.29;101451.19;5070438;28;20032;-66
2021/05/20 11:14:12;;;;;;;1.80;1.55;;;;;;;14.69;54.44;101447.44;5071200;28;20032;-66
2021/05/20 11:16:38;;;;;;;3.10;1.70;;;;;;;14.43;53.41;101449.50;5071392;28;20047;-66
2021/05/20 11:19:52;;;;;;;1.95;1.70;;;;;;;14.18;53.27;101446.81;5070838;28;20028;-66
2021/05/20 11:22:12;;;;;;;4.00;1.70;;;;;;;14.24;53.01;101440.78;5069867;28;20135;-66
2021/05/20 11:24:38;;;;;;;3.00;1.70;;;;;;;14.21;54.89;101446.50;5071123;28;20044;-66
2021/05/20 11:27:06;;;;;;;1.80;1.70;;;;;;;14.64;54.14;101436.38;5070169;28;20044;-66
2021/05/20 11:29:33;;;;;;;2.15;1.80;;;;;;;15.05;51.38;101433.53;5070563;28;20029;-66
2021/05/20 11:32:11;;;;;;;2.50;1.90;;;;;;;15.49;48.65;101430.25;5071104;28;20044;-66
2021/05/20 11:37:03;;;;;;;2.73;1.80;;;;;;;17.12;46.99;101432.44;5070986;28;20446;-66